sensor_id;sensor_type;location;lat;lon;timestamp;temperature;humidity
21807;DHT22;11065;50.786;7.840;2022-10-13T00:01:10;11.20;51.10
21807;DHT22;11065;50.786;7.840;2022-10-13T00:03:38;11.20;51.20
21807;DHT22;11065;50.786;7.840;2022-10-13T00:06:07;11.20;51.10
21807;DHT22;11065;50.786;7.840;2022-10-13T00:08:34;11.20;51.00
21807;DHT22;11065;50.786;7.840;2022-10-13T00:13:44;11.20;51.10
21807;DHT22;11065;50.786;7.840;2022-10-13T00:16:12;11.20;50.80
21807;DHT22;11065;50.786;7.840;2022-10-13T00:18:40;11.20;50.80
21807;DHT22;11065;50.786;7.840;2022-10-13T00:21:09;11.10;50.80
21807;DHT22;11065;50.786;7.840;2022-10-13T00:23:37;11.10;50.80
21807;DHT22;11065;50.786;7.840;2022-10-13T00:26:06;11.10;50.80
21807;DHT22;11065;50.786;7.840;2022-10-13T00:28:34;11.10;50.90
21807;DHT22;11065;50.786;7.840;2022-10-13T00:31:01;11.10;50.90
21807;DHT22;11065;50.786;7.840;2022-10-13T00:33:28;11.10;50.90
21807;DHT22;11065;50.786;7.840;2022-10-13T00:35:55;11.10;50.90
21807;DHT22;11065;50.786;7.840;2022-10-13T00:38:21;11.10;50.90
21807;DHT22;11065;50.786;7.840;2022-10-13T00:40:54;11.00;50.90
21807;DHT22;11065;50.786;7.840;2022-10-13T00:43:22;11.00;51.00
21807;DHT22;11065;50.786;7.840;2022-10-13T00:45:50;11.10;51.00
21807;DHT22;11065;50.786;7.840;2022-10-13T00:48:29;11.10;51.00
21807;DHT22;11065;50.786;7.840;2022-10-13T00:50:57;11.00;51.30
21807;DHT22;11065;50.786;7.840;2022-10-13T00:53:28;11.10;51.10
21807;DHT22;11065;50.786;7.840;2022-10-13T00:55:57;11.10;51.20
21807;DHT22;11065;50.786;7.840;2022-10-13T00:58:24;11.00;51.10
21807;DHT22;11065;50.786;7.840;2022-10-13T01:00:57;11.00;51.10
21807;DHT22;11065;50.786;7.840;2022-10-13T01:03:26;11.00;51.10
21807;DHT22;11065;50.786;7.840;2022-10-13T01:05:57;11.00;51.20
21807;DHT22;11065;50.786;7.840;2022-10-13T01:08:24;11.00;51.30
21807;DHT22;11065;50.786;7.840;2022-10-13T01:11:00;11.00;51.30
21807;DHT22;11065;50.786;7.840;2022-10-13T01:14:19;11.00;51.30
21807;DHT22;11065;50.786;7.840;2022-10-13T01:22:46;11.00;52.00
21807;DHT22;11065;50.786;7.840;2022-10-13T01:42:23;10.90;52.20
21807;DHT22;11065;50.786;7.840;2022-10-13T01:44:57;10.90;52.10
21807;DHT22;11065;50.786;7.840;2022-10-13T01:47:26;10.80;52.10
21807;DHT22;11065;50.786;7.840;2022-10-13T01:49:55;10.90;52.00
21807;DHT22;11065;50.786;7.840;2022-10-13T01:52:25;10.90;52.10
21807;DHT22;11065;50.786;7.840;2022-10-13T01:54:56;10.90;52.20
21807;DHT22;11065;50.786;7.840;2022-10-13T01:58:01;10.90;52.10
21807;DHT22;11065;50.786;7.840;2022-10-13T02:00:21;10.90;52.20
21807;DHT22;11065;50.786;7.840;2022-10-13T02:05:50;10.90;52.40
21807;DHT22;11065;50.786;7.840;2022-10-13T02:08:31;11.00;52.40
21807;DHT22;11065;50.786;7.840;2022-10-13T02:11:15;10.90;52.10
21807;DHT22;11065;50.786;7.840;2022-10-13T02:16:39;10.80;52.20
21807;DHT22;11065;50.786;7.840;2022-10-13T02:19:10;10.80;52.10
21807;DHT22;11065;50.786;7.840;2022-10-13T02:21:38;10.80;52.10
21807;DHT22;11065;50.786;7.840;2022-10-13T02:24:06;10.80;52.20
21807;DHT22;11065;50.786;7.840;2022-10-13T02:26:35;10.80;52.20
21807;DHT22;11065;50.786;7.840;2022-10-13T02:29:10;10.70;52.20
21807;DHT22;11065;50.786;7.840;2022-10-13T02:31:37;10.70;52.30
21807;DHT22;11065;50.786;7.840;2022-10-13T02:34:05;10.70;52.30
21807;DHT22;11065;50.786;7.840;2022-10-13T02:36:32;10.70;52.40
21807;DHT22;11065;50.786;7.840;2022-10-13T02:38:59;10.70;52.50
21807;DHT22;11065;50.786;7.840;2022-10-13T02:41:26;10.70;52.50
21807;DHT22;11065;50.786;7.840;2022-10-13T02:43:53;10.70;52.60
21807;DHT22;11065;50.786;7.840;2022-10-13T02:46:23;10.70;52.50
21807;DHT22;11065;50.786;7.840;2022-10-13T02:48:51;10.70;52.60
21807;DHT22;11065;50.786;7.840;2022-10-13T02:51:17;10.70;52.60
21807;DHT22;11065;50.786;7.840;2022-10-13T02:53:44;10.80;52.70
21807;DHT22;11065;50.786;7.840;2022-10-13T02:56:11;10.80;52.60
21807;DHT22;11065;50.786;7.840;2022-10-13T02:58:38;10.70;52.60
21807;DHT22;11065;50.786;7.840;2022-10-13T03:01:11;10.80;52.60
21807;DHT22;11065;50.786;7.840;2022-10-13T03:03:38;10.70;52.70
21807;DHT22;11065;50.786;7.840;2022-10-13T03:06:06;10.70;52.60
21807;DHT22;11065;50.786;7.840;2022-10-13T03:08:34;10.70;52.70
21807;DHT22;11065;50.786;7.840;2022-10-13T03:11:01;10.70;52.70
21807;DHT22;11065;50.786;7.840;2022-10-13T03:13:28;10.80;52.70
21807;DHT22;11065;50.786;7.840;2022-10-13T03:16:02;10.70;52.70
21807;DHT22;11065;50.786;7.840;2022-10-13T03:18:28;10.70;52.70
21807;DHT22;11065;50.786;7.840;2022-10-13T03:21:01;10.70;52.70
21807;DHT22;11065;50.786;7.840;2022-10-13T03:23:28;10.70;52.80
21807;DHT22;11065;50.786;7.840;2022-10-13T03:25:55;10.80;52.80
21807;DHT22;11065;50.786;7.840;2022-10-13T03:28:22;10.70;52.80
21807;DHT22;11065;50.786;7.840;2022-10-13T03:30:49;10.70;52.80
21807;DHT22;11065;50.786;7.840;2022-10-13T03:33:16;10.70;52.80
21807;DHT22;11065;50.786;7.840;2022-10-13T03:35:43;10.70;52.90
21807;DHT22;11065;50.786;7.840;2022-10-13T03:38:10;10.70;52.90
21807;DHT22;11065;50.786;7.840;2022-10-13T03:40:37;10.80;52.90
21807;DHT22;11065;50.786;7.840;2022-10-13T03:43:04;10.80;52.80
21807;DHT22;11065;50.786;7.840;2022-10-13T03:45:31;10.80;52.80
21807;DHT22;11065;50.786;7.840;2022-10-13T03:47:57;10.80;52.80
21807;DHT22;11065;50.786;7.840;2022-10-13T03:50:24;10.80;52.80
21807;DHT22;11065;50.786;7.840;2022-10-13T03:52:53;10.80;52.70
21807;DHT22;11065;50.786;7.840;2022-10-13T03:55:20;10.80;52.70
21807;DHT22;11065;50.786;7.840;2022-10-13T03:57:47;10.80;52.70
21807;DHT22;11065;50.786;7.840;2022-10-13T04:00:14;10.80;52.70
21807;DHT22;11065;50.786;7.840;2022-10-13T04:02:41;10.70;52.70
21807;DHT22;11065;50.786;7.840;2022-10-13T04:05:08;10.70;52.70
21807;DHT22;11065;50.786;7.840;2022-10-13T04:07:35;10.70;52.70
21807;DHT22;11065;50.786;7.840;2022-10-13T04:10:06;10.70;52.70
21807;DHT22;11065;50.786;7.840;2022-10-13T04:12:37;10.70;52.70
21807;DHT22;11065;50.786;7.840;2022-10-13T04:15:04;10.70;52.80
21807;DHT22;11065;50.786;7.840;2022-10-13T04:17:31;10.70;52.70
21807;DHT22;11065;50.786;7.840;2022-10-13T04:19:58;10.70;52.80
21807;DHT22;11065;50.786;7.840;2022-10-13T04:22:24;10.70;52.80
21807;DHT22;11065;50.786;7.840;2022-10-13T04:24:51;10.70;52.80
21807;DHT22;11065;50.786;7.840;2022-10-13T04:27:18;10.60;52.70
21807;DHT22;11065;50.786;7.840;2022-10-13T04:29:45;10.60;52.70
21807;DHT22;11065;50.786;7.840;2022-10-13T04:32:12;10.60;52.80
21807;DHT22;11065;50.786;7.840;2022-10-13T04:34:39;10.60;52.80
21807;DHT22;11065;50.786;7.840;2022-10-13T04:37:05;10.60;52.90
21807;DHT22;11065;50.786;7.840;2022-10-13T04:39:32;10.60;52.90
21807;DHT22;11065;50.786;7.840;2022-10-13T04:41:59;10.60;52.90
21807;DHT22;11065;50.786;7.840;2022-10-13T04:44:26;10.60;52.90
21807;DHT22;11065;50.786;7.840;2022-10-13T04:46:52;10.60;52.90
21807;DHT22;11065;50.786;7.840;2022-10-13T04:49:19;10.60;52.90
21807;DHT22;11065;50.786;7.840;2022-10-13T04:51:46;10.60;52.90
21807;DHT22;11065;50.786;7.840;2022-10-13T04:54:13;10.60;52.90
21807;DHT22;11065;50.786;7.840;2022-10-13T04:56:39;10.60;52.90
21807;DHT22;11065;50.786;7.840;2022-10-13T04:59:06;10.60;52.90
21807;DHT22;11065;50.786;7.840;2022-10-13T05:01:33;10.60;53.40
21807;DHT22;11065;50.786;7.840;2022-10-13T05:04:04;10.60;53.00
21807;DHT22;11065;50.786;7.840;2022-10-13T05:06:35;10.60;53.00
21807;DHT22;11065;50.786;7.840;2022-10-13T05:09:23;10.60;53.10
21807;DHT22;11065;50.786;7.840;2022-10-13T05:11:49;10.50;53.10
21807;DHT22;11065;50.786;7.840;2022-10-13T05:14:16;10.50;53.00
21807;DHT22;11065;50.786;7.840;2022-10-13T05:16:43;10.50;53.10
21807;DHT22;11065;50.786;7.840;2022-10-13T05:19:14;10.50;53.10
21807;DHT22;11065;50.786;7.840;2022-10-13T05:21:41;10.50;53.10
21807;DHT22;11065;50.786;7.840;2022-10-13T05:24:07;10.50;53.00
21807;DHT22;11065;50.786;7.840;2022-10-13T05:26:39;10.50;53.10
21807;DHT22;11065;50.786;7.840;2022-10-13T05:29:06;10.50;53.10
21807;DHT22;11065;50.786;7.840;2022-10-13T05:31:34;10.50;53.10
21807;DHT22;11065;50.786;7.840;2022-10-13T05:34:02;10.50;53.10
21807;DHT22;11065;50.786;7.840;2022-10-13T05:36:31;10.50;53.10
21807;DHT22;11065;50.786;7.840;2022-10-13T05:39:01;10.50;53.20
21807;DHT22;11065;50.786;7.840;2022-10-13T05:41:29;10.50;53.20
21807;DHT22;11065;50.786;7.840;2022-10-13T05:44:01;10.50;53.30
21807;DHT22;11065;50.786;7.840;2022-10-13T05:46:28;10.50;53.30
21807;DHT22;11065;50.786;7.840;2022-10-13T05:48:55;10.50;53.30
21807;DHT22;11065;50.786;7.840;2022-10-13T05:51:35;10.50;53.30
21807;DHT22;11065;50.786;7.840;2022-10-13T05:54:07;10.50;53.40
21807;DHT22;11065;50.786;7.840;2022-10-13T05:56:43;10.50;53.40
21807;DHT22;11065;50.786;7.840;2022-10-13T05:59:12;10.50;53.50
21807;DHT22;11065;50.786;7.840;2022-10-13T06:01:45;10.50;53.40
21807;DHT22;11065;50.786;7.840;2022-10-13T06:04:19;10.50;53.40
21807;DHT22;11065;50.786;7.840;2022-10-13T06:06:47;10.40;53.40
21807;DHT22;11065;50.786;7.840;2022-10-13T06:09:14;10.40;53.40
21807;DHT22;11065;50.786;7.840;2022-10-13T06:11:42;10.40;53.40
21807;DHT22;11065;50.786;7.840;2022-10-13T06:14:09;10.50;53.50
21807;DHT22;11065;50.786;7.840;2022-10-13T06:16:35;10.40;53.40
21807;DHT22;11065;50.786;7.840;2022-10-13T06:19:04;10.40;53.40
21807;DHT22;11065;50.786;7.840;2022-10-13T06:21:33;10.40;53.50
21807;DHT22;11065;50.786;7.840;2022-10-13T06:24:00;10.40;53.60
21807;DHT22;11065;50.786;7.840;2022-10-13T06:26:27;10.40;53.60
21807;DHT22;11065;50.786;7.840;2022-10-13T06:28:53;10.40;53.60
21807;DHT22;11065;50.786;7.840;2022-10-13T06:31:26;10.40;53.70
21807;DHT22;11065;50.786;7.840;2022-10-13T06:33:52;10.40;53.60
21807;DHT22;11065;50.786;7.840;2022-10-13T06:36:19;10.50;54.20
21807;DHT22;11065;50.786;7.840;2022-10-13T06:38:46;10.50;53.80
21807;DHT22;11065;50.786;7.840;2022-10-13T06:41:14;10.50;53.90
21807;DHT22;11065;50.786;7.840;2022-10-13T06:43:41;10.50;53.90
21807;DHT22;11065;50.786;7.840;2022-10-13T06:46:11;10.50;53.90
21807;DHT22;11065;50.786;7.840;2022-10-13T06:48:38;10.50;54.00
21807;DHT22;11065;50.786;7.840;2022-10-13T06:51:07;10.50;54.00
21807;DHT22;11065;50.786;7.840;2022-10-13T06:53:35;10.50;54.10
21807;DHT22;11065;50.786;7.840;2022-10-13T06:56:04;10.60;54.50
21807;DHT22;11065;50.786;7.840;2022-10-13T06:58:31;10.60;54.00
21807;DHT22;11065;50.786;7.840;2022-10-13T07:00:58;10.60;54.00
21807;DHT22;11065;50.786;7.840;2022-10-13T07:03:25;10.70;54.00
21807;DHT22;11065;50.786;7.840;2022-10-13T07:05:52;10.70;54.00
21807;DHT22;11065;50.786;7.840;2022-10-13T07:08:19;10.70;54.00
21807;DHT22;11065;50.786;7.840;2022-10-13T07:10:46;10.70;54.00
21807;DHT22;11065;50.786;7.840;2022-10-13T07:13:13;10.80;54.10
21807;DHT22;11065;50.786;7.840;2022-10-13T07:15:39;10.80;54.10
21807;DHT22;11065;50.786;7.840;2022-10-13T07:18:06;10.80;54.10
21807;DHT22;11065;50.786;7.840;2022-10-13T07:20:33;10.90;54.30
21807;DHT22;11065;50.786;7.840;2022-10-13T07:23:01;10.90;54.20
21807;DHT22;11065;50.786;7.840;2022-10-13T07:25:28;10.90;54.20
21807;DHT22;11065;50.786;7.840;2022-10-13T07:27:54;11.00;54.20
21807;DHT22;11065;50.786;7.840;2022-10-13T07:30:21;11.00;54.20
21807;DHT22;11065;50.786;7.840;2022-10-13T07:32:48;11.10;54.30
21807;DHT22;11065;50.786;7.840;2022-10-13T07:35:15;11.10;54.30
21807;DHT22;11065;50.786;7.840;2022-10-13T07:37:42;11.20;54.30
21807;DHT22;11065;50.786;7.840;2022-10-13T07:40:09;11.20;54.30
21807;DHT22;11065;50.786;7.840;2022-10-13T07:42:36;11.30;54.40
21807;DHT22;11065;50.786;7.840;2022-10-13T07:45:03;11.30;54.30
21807;DHT22;11065;50.786;7.840;2022-10-13T07:47:30;11.40;54.30
21807;DHT22;11065;50.786;7.840;2022-10-13T07:49:58;11.40;54.30
21807;DHT22;11065;50.786;7.840;2022-10-13T07:52:25;11.50;54.20
21807;DHT22;11065;50.786;7.840;2022-10-13T07:54:52;11.50;54.30
21807;DHT22;11065;50.786;7.840;2022-10-13T07:57:19;11.60;54.50
21807;DHT22;11065;50.786;7.840;2022-10-13T07:59:46;11.60;54.60
21807;DHT22;11065;50.786;7.840;2022-10-13T08:02:14;11.80;54.80
21807;DHT22;11065;50.786;7.840;2022-10-13T08:04:41;11.90;54.70
21807;DHT22;11065;50.786;7.840;2022-10-13T08:07:08;12.00;54.60
21807;DHT22;11065;50.786;7.840;2022-10-13T08:09:34;12.10;54.50
21807;DHT22;11065;50.786;7.840;2022-10-13T08:12:02;12.20;54.30
21807;DHT22;11065;50.786;7.840;2022-10-13T08:14:29;12.30;54.30
21807;DHT22;11065;50.786;7.840;2022-10-13T08:16:57;12.40;54.30
21807;DHT22;11065;50.786;7.840;2022-10-13T08:19:23;12.50;54.30
21807;DHT22;11065;50.786;7.840;2022-10-13T08:21:52;12.60;54.30
21807;DHT22;11065;50.786;7.840;2022-10-13T08:24:25;12.70;54.10
21807;DHT22;11065;50.786;7.840;2022-10-13T08:26:52;12.70;53.90
21807;DHT22;11065;50.786;7.840;2022-10-13T08:29:19;12.80;53.80
21807;DHT22;11065;50.786;7.840;2022-10-13T08:31:49;12.80;53.70
21807;DHT22;11065;50.786;7.840;2022-10-13T08:34:16;12.80;54.10
21807;DHT22;11065;50.786;7.840;2022-10-13T08:36:43;12.90;53.70
21807;DHT22;11065;50.786;7.840;2022-10-13T08:39:10;12.90;53.70
21807;DHT22;11065;50.786;7.840;2022-10-13T08:41:40;12.90;53.70
21807;DHT22;11065;50.786;7.840;2022-10-13T08:47:36;13.00;53.90
21807;DHT22;11065;50.786;7.840;2022-10-13T08:50:18;13.00;53.90
21807;DHT22;11065;50.786;7.840;2022-10-13T08:53:13;13.00;53.80
21807;DHT22;11065;50.786;7.840;2022-10-13T08:55:51;13.10;53.90
21807;DHT22;11065;50.786;7.840;2022-10-13T08:58:29;13.10;53.90
21807;DHT22;11065;50.786;7.840;2022-10-13T09:01:18;13.20;54.00
21807;DHT22;11065;50.786;7.840;2022-10-13T09:06:43;13.30;54.40
21807;DHT22;11065;50.786;7.840;2022-10-13T09:09:13;13.40;54.70
21807;DHT22;11065;50.786;7.840;2022-10-13T09:11:47;13.70;55.40
21807;DHT22;11065;50.786;7.840;2022-10-13T09:16:49;14.30;56.00
21807;DHT22;11065;50.786;7.840;2022-10-13T09:19:21;14.70;56.50
21807;DHT22;11065;50.786;7.840;2022-10-13T09:21:55;15.30;57.10
21807;DHT22;11065;50.786;7.840;2022-10-13T09:24:23;15.90;57.10
21807;DHT22;11065;50.786;7.840;2022-10-13T09:27:02;16.50;57.30
21807;DHT22;11065;50.786;7.840;2022-10-13T09:29:31;17.20;55.70
21807;DHT22;11065;50.786;7.840;2022-10-13T09:32:16;17.70;55.10
21807;DHT22;11065;50.786;7.840;2022-10-13T09:34:45;18.10;53.20
21807;DHT22;11065;50.786;7.840;2022-10-13T09:37:23;18.30;53.30
21807;DHT22;11065;50.786;7.840;2022-10-13T09:40:00;18.60;52.80
21807;DHT22;11065;50.786;7.840;2022-10-13T09:42:37;18.90;52.10
21807;DHT22;11065;50.786;7.840;2022-10-13T09:45:17;19.10;52.10
21807;DHT22;11065;50.786;7.840;2022-10-13T09:47:52;19.20;50.90
21807;DHT22;11065;50.786;7.840;2022-10-13T09:50:23;19.30;50.80
21807;DHT22;11065;50.786;7.840;2022-10-13T09:52:52;19.30;50.50
21807;DHT22;11065;50.786;7.840;2022-10-13T09:55:31;19.30;50.50
21807;DHT22;11065;50.786;7.840;2022-10-13T09:58:10;19.30;49.80
21807;DHT22;11065;50.786;7.840;2022-10-13T10:00:40;19.30;49.60
21807;DHT22;11065;50.786;7.840;2022-10-13T10:05:52;19.10;49.20
21807;DHT22;11065;50.786;7.840;2022-10-13T10:11:32;19.00;49.80
21807;DHT22;11065;50.786;7.840;2022-10-13T10:16:45;19.10;50.00
21807;DHT22;11065;50.786;7.840;2022-10-13T10:19:21;19.10;50.40
21807;DHT22;11065;50.786;7.840;2022-10-13T10:22:03;19.20;50.50
21807;DHT22;11065;50.786;7.840;2022-10-13T10:24:50;19.40;50.40
21807;DHT22;11065;50.786;7.840;2022-10-13T10:27:47;19.60;50.50
21807;DHT22;11065;50.786;7.840;2022-10-13T10:30:16;19.70;50.60
21807;DHT22;11065;50.786;7.840;2022-10-13T10:32:53;20.10;51.20
21807;DHT22;11065;50.786;7.840;2022-10-13T10:35:40;20.40;51.20
21807;DHT22;11065;50.786;7.840;2022-10-13T10:47:26;21.30;49.00
21807;DHT22;11065;50.786;7.840;2022-10-13T10:49:58;21.20;48.20
21807;DHT22;11065;50.786;7.840;2022-10-13T10:52:49;21.10;48.10
21807;DHT22;11065;50.786;7.840;2022-10-13T10:55:55;21.00;47.30
21807;DHT22;11065;50.786;7.840;2022-10-13T10:58:34;20.80;46.90
21807;DHT22;11065;50.786;7.840;2022-10-13T11:06:45;20.20;47.50
21807;DHT22;11065;50.786;7.840;2022-10-13T11:09:12;20.10;47.90
21807;DHT22;11065;50.786;7.840;2022-10-13T11:11:41;20.00;48.10
21807;DHT22;11065;50.786;7.840;2022-10-13T11:14:21;19.90;48.20
21807;DHT22;11065;50.786;7.840;2022-10-13T11:17:02;19.80;48.30
21807;DHT22;11065;50.786;7.840;2022-10-13T11:19:39;19.80;48.40
21807;DHT22;11065;50.786;7.840;2022-10-13T11:40:58;20.70;47.60
21807;DHT22;11065;50.786;7.840;2022-10-13T11:43:35;20.80;48.00
21807;DHT22;11065;50.786;7.840;2022-10-13T11:46:17;20.90;48.20
21807;DHT22;11065;50.786;7.840;2022-10-13T11:51:38;21.00;47.80
21807;DHT22;11065;50.786;7.840;2022-10-13T11:54:18;20.90;47.20
21807;DHT22;11065;50.786;7.840;2022-10-13T11:56:50;20.90;47.50
21807;DHT22;11065;50.786;7.840;2022-10-13T11:59:32;20.90;47.40
21807;DHT22;11065;50.786;7.840;2022-10-13T12:04:35;20.80;47.00
21807;DHT22;11065;50.786;7.840;2022-10-13T12:07:08;20.70;47.30
21807;DHT22;11065;50.786;7.840;2022-10-13T12:09:53;20.70;47.40
21807;DHT22;11065;50.786;7.840;2022-10-13T12:12:23;20.60;47.30
21807;DHT22;11065;50.786;7.840;2022-10-13T12:14:52;20.60;47.60
21807;DHT22;11065;50.786;7.840;2022-10-13T12:20:00;20.60;47.80
21807;DHT22;11065;50.786;7.840;2022-10-13T12:22:29;20.60;47.70
21807;DHT22;11065;50.786;7.840;2022-10-13T12:25:05;20.60;47.70
21807;DHT22;11065;50.786;7.840;2022-10-13T12:27:41;20.60;47.50
21807;DHT22;11065;50.786;7.840;2022-10-13T12:30:32;20.60;47.50
21807;DHT22;11065;50.786;7.840;2022-10-13T12:33:17;20.60;47.20
21807;DHT22;11065;50.786;7.840;2022-10-13T12:35:44;20.60;47.50
21807;DHT22;11065;50.786;7.840;2022-10-13T12:38:17;20.60;47.70
21807;DHT22;11065;50.786;7.840;2022-10-13T12:40:47;20.60;47.60
21807;DHT22;11065;50.786;7.840;2022-10-13T12:43:18;20.60;47.70
21807;DHT22;11065;50.786;7.840;2022-10-13T12:45:47;20.60;47.60
21807;DHT22;11065;50.786;7.840;2022-10-13T12:48:34;20.70;47.70
21807;DHT22;11065;50.786;7.840;2022-10-13T12:51:17;20.70;47.30
21807;DHT22;11065;50.786;7.840;2022-10-13T12:53:45;20.70;47.00
21807;DHT22;11065;50.786;7.840;2022-10-13T12:56:32;20.60;47.20
21807;DHT22;11065;50.786;7.840;2022-10-13T12:58:59;20.60;47.10
21807;DHT22;11065;50.786;7.840;2022-10-13T13:01:29;20.50;47.20
21807;DHT22;11065;50.786;7.840;2022-10-13T13:03:59;20.50;47.30
21807;DHT22;11065;50.786;7.840;2022-10-13T13:06:30;20.50;47.50
21807;DHT22;11065;50.786;7.840;2022-10-13T13:09:20;20.50;47.50
21807;DHT22;11065;50.786;7.840;2022-10-13T13:11:47;20.50;47.40
21807;DHT22;11065;50.786;7.840;2022-10-13T13:14:45;20.60;47.60
21807;DHT22;11065;50.786;7.840;2022-10-13T13:22:46;20.80;47.40
21807;DHT22;11065;50.786;7.840;2022-10-13T13:25:14;20.90;47.60
21807;DHT22;11065;50.786;7.840;2022-10-13T13:27:41;20.90;47.50
21807;DHT22;11065;50.786;7.840;2022-10-13T13:30:13;20.90;47.30
21807;DHT22;11065;50.786;7.840;2022-10-13T13:32:40;20.90;47.00
21807;DHT22;11065;50.786;7.840;2022-10-13T13:35:08;20.90;46.90
21807;DHT22;11065;50.786;7.840;2022-10-13T13:37:40;20.90;46.90
21807;DHT22;11065;50.786;7.840;2022-10-13T13:40:15;20.80;46.70
21807;DHT22;11065;50.786;7.840;2022-10-13T13:42:42;20.70;46.70
21807;DHT22;11065;50.786;7.840;2022-10-13T13:45:17;20.60;46.70
21807;DHT22;11065;50.786;7.840;2022-10-13T13:47:45;20.50;46.70
21807;DHT22;11065;50.786;7.840;2022-10-13T13:50:22;20.40;46.90
21807;DHT22;11065;50.786;7.840;2022-10-13T13:52:55;20.30;46.80
21807;DHT22;11065;50.786;7.840;2022-10-13T13:55:22;20.20;46.80
21807;DHT22;11065;50.786;7.840;2022-10-13T13:57:48;20.20;46.80
21807;DHT22;11065;50.786;7.840;2022-10-13T14:00:16;20.10;47.00
21807;DHT22;11065;50.786;7.840;2022-10-13T14:02:48;20.00;47.10
21807;DHT22;11065;50.786;7.840;2022-10-13T14:05:14;19.90;47.10
21807;DHT22;11065;50.786;7.840;2022-10-13T14:07:41;19.90;47.20
21807;DHT22;11065;50.786;7.840;2022-10-13T14:10:09;19.90;47.30
21807;DHT22;11065;50.786;7.840;2022-10-13T14:12:36;19.90;47.40
21807;DHT22;11065;50.786;7.840;2022-10-13T14:15:04;19.90;47.50
21807;DHT22;11065;50.786;7.840;2022-10-13T14:17:31;19.80;47.70
21807;DHT22;11065;50.786;7.840;2022-10-13T14:19:59;19.80;47.90
21807;DHT22;11065;50.786;7.840;2022-10-13T14:22:25;19.80;48.00
21807;DHT22;11065;50.786;7.840;2022-10-13T14:24:53;19.80;48.10
21807;DHT22;11065;50.786;7.840;2022-10-13T14:27:20;19.90;48.30
21807;DHT22;11065;50.786;7.840;2022-10-13T14:29:46;19.90;48.40
21807;DHT22;11065;50.786;7.840;2022-10-13T14:32:14;19.90;48.40
21807;DHT22;11065;50.786;7.840;2022-10-13T14:34:41;20.00;48.60
21807;DHT22;11065;50.786;7.840;2022-10-13T14:37:08;20.00;48.70
21807;DHT22;11065;50.786;7.840;2022-10-13T14:39:34;20.10;48.70
21807;DHT22;11065;50.786;7.840;2022-10-13T14:42:01;20.10;48.50
21807;DHT22;11065;50.786;7.840;2022-10-13T14:44:28;20.20;48.60
21807;DHT22;11065;50.786;7.840;2022-10-13T14:46:54;20.20;48.60
21807;DHT22;11065;50.786;7.840;2022-10-13T14:49:21;20.20;48.60
21807;DHT22;11065;50.786;7.840;2022-10-13T14:51:49;20.20;48.50
21807;DHT22;11065;50.786;7.840;2022-10-13T14:54:16;20.20;48.40
21807;DHT22;11065;50.786;7.840;2022-10-13T14:56:43;20.20;48.40
21807;DHT22;11065;50.786;7.840;2022-10-13T14:59:11;20.20;48.20
21807;DHT22;11065;50.786;7.840;2022-10-13T15:01:39;20.10;48.10
21807;DHT22;11065;50.786;7.840;2022-10-13T15:04:07;20.10;48.20
21807;DHT22;11065;50.786;7.840;2022-10-13T15:06:36;20.00;48.10
21807;DHT22;11065;50.786;7.840;2022-10-13T15:09:08;19.90;48.00
21807;DHT22;11065;50.786;7.840;2022-10-13T15:11:40;19.80;48.00
21807;DHT22;11065;50.786;7.840;2022-10-13T15:14:06;19.80;48.10
21807;DHT22;11065;50.786;7.840;2022-10-13T15:16:35;19.70;48.20
21807;DHT22;11065;50.786;7.840;2022-10-13T15:19:03;19.60;48.20
21807;DHT22;11065;50.786;7.840;2022-10-13T15:21:30;19.50;48.50
21807;DHT22;11065;50.786;7.840;2022-10-13T15:23:57;19.50;48.60
21807;DHT22;11065;50.786;7.840;2022-10-13T15:26:23;19.40;48.60
21807;DHT22;11065;50.786;7.840;2022-10-13T15:28:51;19.30;48.70
21807;DHT22;11065;50.786;7.840;2022-10-13T15:31:20;19.20;48.70
21807;DHT22;11065;50.786;7.840;2022-10-13T15:33:49;19.20;48.80
21807;DHT22;11065;50.786;7.840;2022-10-13T15:36:20;19.10;49.00
21807;DHT22;11065;50.786;7.840;2022-10-13T15:38:47;19.10;49.20
21807;DHT22;11065;50.786;7.840;2022-10-13T15:41:14;19.00;49.40
21807;DHT22;11065;50.786;7.840;2022-10-13T15:43:41;19.00;49.50
21807;DHT22;11065;50.786;7.840;2022-10-13T15:46:13;19.00;49.50
21807;DHT22;11065;50.786;7.840;2022-10-13T15:48:48;18.90;49.60
21807;DHT22;11065;50.786;7.840;2022-10-13T15:51:16;18.80;49.50
21807;DHT22;11065;50.786;7.840;2022-10-13T15:53:46;18.80;49.60
21807;DHT22;11065;50.786;7.840;2022-10-13T15:56:13;18.70;49.70
21807;DHT22;11065;50.786;7.840;2022-10-13T15:58:40;18.70;49.80
21807;DHT22;11065;50.786;7.840;2022-10-13T16:01:08;18.60;49.90
21807;DHT22;11065;50.786;7.840;2022-10-13T16:03:35;18.60;50.10
21807;DHT22;11065;50.786;7.840;2022-10-13T16:06:04;18.60;50.40
21807;DHT22;11065;50.786;7.840;2022-10-13T16:08:34;18.50;50.60
21807;DHT22;11065;50.786;7.840;2022-10-13T16:11:06;18.50;50.80
21807;DHT22;11065;50.786;7.840;2022-10-13T16:13:33;18.40;50.90
21807;DHT22;11065;50.786;7.840;2022-10-13T16:16:00;18.40;50.80
21807;DHT22;11065;50.786;7.840;2022-10-13T16:18:29;18.40;50.90
21807;DHT22;11065;50.786;7.840;2022-10-13T16:20:56;18.30;50.90
21807;DHT22;11065;50.786;7.840;2022-10-13T16:23:23;18.30;50.90
21807;DHT22;11065;50.786;7.840;2022-10-13T16:25:50;18.20;51.00
21807;DHT22;11065;50.786;7.840;2022-10-13T16:28:17;18.20;51.10
21807;DHT22;11065;50.786;7.840;2022-10-13T16:30:44;18.10;51.20
21807;DHT22;11065;50.786;7.840;2022-10-13T16:33:10;18.10;51.20
21807;DHT22;11065;50.786;7.840;2022-10-13T16:35:37;18.00;51.20
21807;DHT22;11065;50.786;7.840;2022-10-13T16:38:04;18.00;51.30
21807;DHT22;11065;50.786;7.840;2022-10-13T16:40:31;17.90;51.10
21807;DHT22;11065;50.786;7.840;2022-10-13T16:42:58;18.00;51.20
21807;DHT22;11065;50.786;7.840;2022-10-13T16:45:25;17.90;51.40
21807;DHT22;11065;50.786;7.840;2022-10-13T16:48:12;17.80;51.50
21807;DHT22;11065;50.786;7.840;2022-10-13T16:50:38;17.80;51.50
21807;DHT22;11065;50.786;7.840;2022-10-13T16:53:05;17.80;51.60
21807;DHT22;11065;50.786;7.840;2022-10-13T16:55:32;17.70;51.70
21807;DHT22;11065;50.786;7.840;2022-10-13T16:57:59;17.60;51.80
21807;DHT22;11065;50.786;7.840;2022-10-13T17:00:25;17.60;51.80
21807;DHT22;11065;50.786;7.840;2022-10-13T17:02:52;17.60;52.00
21807;DHT22;11065;50.786;7.840;2022-10-13T17:05:20;17.50;51.90
21807;DHT22;11065;50.786;7.840;2022-10-13T17:07:46;17.50;52.00
21807;DHT22;11065;50.786;7.840;2022-10-13T17:10:13;17.50;52.00
21807;DHT22;11065;50.786;7.840;2022-10-13T17:12:40;17.40;52.10
21807;DHT22;11065;50.786;7.840;2022-10-13T17:15:07;17.40;52.20
21807;DHT22;11065;50.786;7.840;2022-10-13T17:17:34;17.40;52.30
21807;DHT22;11065;50.786;7.840;2022-10-13T17:20:01;17.30;52.30
21807;DHT22;11065;50.786;7.840;2022-10-13T17:22:28;17.30;52.40
21807;DHT22;11065;50.786;7.840;2022-10-13T17:24:54;17.30;52.50